sensor_id;sensor_type;location;lat;lon;timestamp;P1;durP1;ratioP1;P2;durP2;ratioP2
22007;SDS011;11168;56.976;24.168;2023-07-30T00:00:49;12.65;;;7.72;;
22007;SDS011;11168;56.976;24.168;2023-07-30T00:03:17;11.95;;;7.43;;
22007;SDS011;11168;56.976;24.168;2023-07-30T00:05:51;15.00;;;8.20;;
22007;SDS011;11168;56.976;24.168;2023-07-30T00:08:19;14.75;;;7.47;;
22007;SDS011;11168;56.976;24.168;2023-07-30T00:10:46;12.63;;;7.28;;
22007;SDS011;11168;56.976;24.168;2023-07-30T00:13:13;12.50;;;7.32;;
22007;SDS011;11168;56.976;24.168;2023-07-30T00:15:40;10.07;;;7.00;;
22007;SDS011;11168;56.976;24.168;2023-07-30T00:18:07;12.82;;;7.18;;
22007;SDS011;11168;56.976;24.168;2023-07-30T00:20:34;10.60;;;7.30;;
22007;SDS011;11168;56.976;24.168;2023-07-30T00:23:02;9.88;;;7.25;;
22007;SDS011;11168;56.976;24.168;2023-07-30T00:25:29;11.65;;;7.38;;
22007;SDS011;11168;56.976;24.168;2023-07-30T00:27:56;10.80;;;7.00;;
22007;SDS011;11168;56.976;24.168;2023-07-30T00:30:23;10.35;;;7.38;;
22007;SDS011;11168;56.976;24.168;2023-07-30T00:32:50;13.93;;;7.05;;
22007;SDS011;11168;56.976;24.168;2023-07-30T00:35:17;12.15;;;7.20;;
22007;SDS011;11168;56.976;24.168;2023-07-30T00:37:44;12.88;;;6.60;;
22007;SDS011;11168;56.976;24.168;2023-07-30T00:40:11;12.05;;;6.50;;
22007;SDS011;11168;56.976;24.168;2023-07-30T00:42:38;11.93;;;7.55;;
22007;SDS011;11168;56.976;24.168;2023-07-30T00:45:06;11.02;;;7.28;;
22007;SDS011;11168;56.976;24.168;2023-07-30T00:47:33;11.73;;;7.30;;
22007;SDS011;11168;56.976;24.168;2023-07-30T00:50:00;12.35;;;6.88;;
22007;SDS011;11168;56.976;24.168;2023-07-30T00:52:28;10.27;;;6.13;;
22007;SDS011;11168;56.976;24.168;2023-07-30T00:54:57;11.15;;;6.90;;
22007;SDS011;11168;56.976;24.168;2023-07-30T00:57:25;15.60;;;7.07;;
22007;SDS011;11168;56.976;24.168;2023-07-30T00:59:52;8.40;;;6.53;;
22007;SDS011;11168;56.976;24.168;2023-07-30T01:02:20;12.73;;;5.75;;
22007;SDS011;11168;56.976;24.168;2023-07-30T01:04:48;10.57;;;6.20;;
22007;SDS011;11168;56.976;24.168;2023-07-30T01:07:16;11.35;;;5.95;;
22007;SDS011;11168;56.976;24.168;2023-07-30T01:09:43;11.10;;;6.30;;
22007;SDS011;11168;56.976;24.168;2023-07-30T01:12:10;10.68;;;6.22;;
22007;SDS011;11168;56.976;24.168;2023-07-30T01:14:37;10.35;;;6.07;;
22007;SDS011;11168;56.976;24.168;2023-07-30T01:17:05;8.60;;;5.78;;
22007;SDS011;11168;56.976;24.168;2023-07-30T01:19:32;11.20;;;5.88;;
22007;SDS011;11168;56.976;24.168;2023-07-30T01:21:59;9.88;;;6.00;;
22007;SDS011;11168;56.976;24.168;2023-07-30T01:24:26;11.65;;;7.05;;
22007;SDS011;11168;56.976;24.168;2023-07-30T01:26:59;11.10;;;6.90;;
22007;SDS011;11168;56.976;24.168;2023-07-30T01:29:38;10.68;;;6.60;;
22007;SDS011;11168;56.976;24.168;2023-07-30T01:32:11;10.20;;;6.88;;
22007;SDS011;11168;56.976;24.168;2023-07-30T01:34:39;11.10;;;7.03;;
22007;SDS011;11168;56.976;24.168;2023-07-30T01:37:08;12.45;;;6.50;;
22007;SDS011;11168;56.976;24.168;2023-07-30T01:39:37;12.63;;;7.27;;
22007;SDS011;11168;56.976;24.168;2023-07-30T01:42:06;13.90;;;7.50;;
22007;SDS011;11168;56.976;24.168;2023-07-30T01:44:33;11.70;;;7.13;;
22007;SDS011;11168;56.976;24.168;2023-07-30T01:47:00;13.15;;;6.90;;
22007;SDS011;11168;56.976;24.168;2023-07-30T01:49:27;13.85;;;6.78;;
22007;SDS011;11168;56.976;24.168;2023-07-30T01:51:54;10.38;;;6.20;;
22007;SDS011;11168;56.976;24.168;2023-07-30T01:54:21;9.10;;;6.70;;
22007;SDS011;11168;56.976;24.168;2023-07-30T01:56:49;12.77;;;6.47;;
22007;SDS011;11168;56.976;24.168;2023-07-30T01:59:16;11.60;;;6.65;;
22007;SDS011;11168;56.976;24.168;2023-07-30T02:01:43;11.05;;;6.90;;
22007;SDS011;11168;56.976;24.168;2023-07-30T02:04:10;12.80;;;6.20;;
22007;SDS011;11168;56.976;24.168;2023-07-30T02:06:37;15.90;;;6.88;;
22007;SDS011;11168;56.976;24.168;2023-07-30T02:09:04;12.70;;;6.35;;
22007;SDS011;11168;56.976;24.168;2023-07-30T02:11:31;12.68;;;6.63;;
22007;SDS011;11168;56.976;24.168;2023-07-30T02:13:58;13.00;;;6.60;;
22007;SDS011;11168;56.976;24.168;2023-07-30T02:16:25;11.95;;;7.00;;
22007;SDS011;11168;56.976;24.168;2023-07-30T02:18:52;12.70;;;7.13;;
22007;SDS011;11168;56.976;24.168;2023-07-30T02:21:19;12.98;;;6.80;;
22007;SDS011;11168;56.976;24.168;2023-07-30T02:23:46;10.23;;;6.65;;
22007;SDS011;11168;56.976;24.168;2023-07-30T02:26:13;12.65;;;6.95;;
22007;SDS011;11168;56.976;24.168;2023-07-30T02:28:39;10.05;;;6.45;;
22007;SDS011;11168;56.976;24.168;2023-07-30T02:31:06;10.32;;;6.57;;
22007;SDS011;11168;56.976;24.168;2023-07-30T02:33:33;12.55;;;6.15;;
22007;SDS011;11168;56.976;24.168;2023-07-30T02:36:00;12.50;;;6.57;;
22007;SDS011;11168;56.976;24.168;2023-07-30T02:38:27;14.93;;;6.50;;
22007;SDS011;11168;56.976;24.168;2023-07-30T02:40:54;11.55;;;6.10;;
22007;SDS011;11168;56.976;24.168;2023-07-30T02:43:21;13.00;;;6.53;;
22007;SDS011;11168;56.976;24.168;2023-07-30T02:45:48;8.60;;;6.75;;
22007;SDS011;11168;56.976;24.168;2023-07-30T02:48:15;10.68;;;6.70;;
22007;SDS011;11168;56.976;24.168;2023-07-30T02:50:43;10.82;;;6.22;;
22007;SDS011;11168;56.976;24.168;2023-07-30T02:53:10;12.18;;;6.22;;
22007;SDS011;11168;56.976;24.168;2023-07-30T02:55:37;12.43;;;6.63;;
22007;SDS011;11168;56.976;24.168;2023-07-30T02:58:04;10.02;;;6.30;;
22007;SDS011;11168;56.976;24.168;2023-07-30T03:00:31;11.57;;;5.90;;
22007;SDS011;11168;56.976;24.168;2023-07-30T03:02:58;11.35;;;5.30;;
22007;SDS011;11168;56.976;24.168;2023-07-30T03:05:28;10.35;;;6.10;;
22007;SDS011;11168;56.976;24.168;2023-07-30T03:07:55;8.82;;;5.93;;
22007;SDS011;11168;56.976;24.168;2023-07-30T03:10:22;11.25;;;5.82;;
22007;SDS011;11168;56.976;24.168;2023-07-30T03:12:49;12.07;;;5.80;;
22007;SDS011;11168;56.976;24.168;2023-07-30T03:15:16;8.57;;;6.00;;
22007;SDS011;11168;56.976;24.168;2023-07-30T03:17:43;17.35;;;5.93;;
22007;SDS011;11168;56.976;24.168;2023-07-30T03:20:10;11.65;;;5.55;;
22007;SDS011;11168;56.976;24.168;2023-07-30T03:22:37;8.38;;;5.15;;
22007;SDS011;11168;56.976;24.168;2023-07-30T03:25:04;8.23;;;5.20;;
22007;SDS011;11168;56.976;24.168;2023-07-30T03:27:32;10.02;;;5.35;;
22007;SDS011;11168;56.976;24.168;2023-07-30T03:29:58;7.75;;;5.10;;
22007;SDS011;11168;56.976;24.168;2023-07-30T03:32:25;9.77;;;5.22;;
22007;SDS011;11168;56.976;24.168;2023-07-30T03:34:52;9.85;;;4.90;;
22007;SDS011;11168;56.976;24.168;2023-07-30T03:37:19;14.10;;;5.40;;
22007;SDS011;11168;56.976;24.168;2023-07-30T03:39:46;10.40;;;5.30;;
22007;SDS011;11168;56.976;24.168;2023-07-30T03:42:13;7.90;;;4.70;;
22007;SDS011;11168;56.976;24.168;2023-07-30T03:44:40;11.88;;;5.05;;
22007;SDS011;11168;56.976;24.168;2023-07-30T03:47:07;10.02;;;4.68;;
22007;SDS011;11168;56.976;24.168;2023-07-30T03:49:34;8.98;;;4.78;;
22007;SDS011;11168;56.976;24.168;2023-07-30T03:52:01;7.13;;;4.72;;
22007;SDS011;11168;56.976;24.168;2023-07-30T03:54:45;7.07;;;4.60;;
22007;SDS011;11168;56.976;24.168;2023-07-30T03:57:12;9.63;;;4.88;;
22007;SDS011;11168;56.976;24.168;2023-07-30T03:59:39;8.10;;;4.30;;
22007;SDS011;11168;56.976;24.168;2023-07-30T04:02:06;10.55;;;4.20;;
22007;SDS011;11168;56.976;24.168;2023-07-30T04:04:33;9.23;;;4.22;;
22007;SDS011;11168;56.976;24.168;2023-07-30T04:07:00;9.85;;;4.63;;
22007;SDS011;11168;56.976;24.168;2023-07-30T04:09:27;9.13;;;4.50;;
22007;SDS011;11168;56.976;24.168;2023-07-30T04:11:54;11.65;;;4.18;;
22007;SDS011;11168;56.976;24.168;2023-07-30T04:14:21;10.73;;;3.85;;
22007;SDS011;11168;56.976;24.168;2023-07-30T04:16:48;10.70;;;4.22;;
22007;SDS011;11168;56.976;24.168;2023-07-30T04:19:15;9.27;;;4.47;;
22007;SDS011;11168;56.976;24.168;2023-07-30T04:21:42;11.75;;;3.97;;
22007;SDS011;11168;56.976;24.168;2023-07-30T04:24:09;10.38;;;4.38;;
22007;SDS011;11168;56.976;24.168;2023-07-30T04:26:36;7.47;;;4.20;;
22007;SDS011;11168;56.976;24.168;2023-07-30T04:29:03;7.75;;;3.60;;
22007;SDS011;11168;56.976;24.168;2023-07-30T04:31:30;7.63;;;4.38;;
22007;SDS011;11168;56.976;24.168;2023-07-30T04:33:58;9.07;;;4.03;;
22007;SDS011;11168;56.976;24.168;2023-07-30T04:36:25;9.93;;;3.88;;
22007;SDS011;11168;56.976;24.168;2023-07-30T04:38:53;8.18;;;3.20;;
22007;SDS011;11168;56.976;24.168;2023-07-30T04:41:20;6.25;;;3.40;;
22007;SDS011;11168;56.976;24.168;2023-07-30T04:43:47;5.78;;;3.53;;
22007;SDS011;11168;56.976;24.168;2023-07-30T04:46:14;9.32;;;3.00;;
22007;SDS011;11168;56.976;24.168;2023-07-30T04:48:41;7.32;;;3.10;;
22007;SDS011;11168;56.976;24.168;2023-07-30T04:51:08;6.45;;;3.42;;
22007;SDS011;11168;56.976;24.168;2023-07-30T04:53:35;6.30;;;3.35;;
22007;SDS011;11168;56.976;24.168;2023-07-30T04:56:02;4.05;;;2.70;;
22007;SDS011;11168;56.976;24.168;2023-07-30T04:58:29;7.28;;;2.60;;
22007;SDS011;11168;56.976;24.168;2023-07-30T05:00:56;6.60;;;2.45;;
22007;SDS011;11168;56.976;24.168;2023-07-30T05:03:23;5.93;;;2.60;;
22007;SDS011;11168;56.976;24.168;2023-07-30T05:05:50;4.60;;;2.20;;
22007;SDS011;11168;56.976;24.168;2023-07-30T05:08:17;7.07;;;2.50;;
22007;SDS011;11168;56.976;24.168;2023-07-30T05:10:44;14.02;;;2.53;;
22007;SDS011;11168;56.976;24.168;2023-07-30T05:13:11;4.70;;;2.50;;
22007;SDS011;11168;56.976;24.168;2023-07-30T05:15:39;9.00;;;2.63;;
22007;SDS011;11168;56.976;24.168;2023-07-30T05:18:06;7.90;;;2.65;;
22007;SDS011;11168;56.976;24.168;2023-07-30T05:20:33;5.57;;;2.80;;
22007;SDS011;11168;56.976;24.168;2023-07-30T05:23:00;8.13;;;2.80;;
22007;SDS011;11168;56.976;24.168;2023-07-30T05:25:28;5.13;;;2.88;;
22007;SDS011;11168;56.976;24.168;2023-07-30T05:27:56;6.30;;;2.90;;
22007;SDS011;11168;56.976;24.168;2023-07-30T05:30:23;7.90;;;2.70;;
22007;SDS011;11168;56.976;24.168;2023-07-30T05:32:50;4.82;;;2.80;;
22007;SDS011;11168;56.976;24.168;2023-07-30T05:35:17;4.75;;;2.60;;
22007;SDS011;11168;56.976;24.168;2023-07-30T05:37:45;6.07;;;3.17;;
22007;SDS011;11168;56.976;24.168;2023-07-30T05:40:12;4.13;;;2.60;;
22007;SDS011;11168;56.976;24.168;2023-07-30T05:42:39;6.45;;;2.60;;
22007;SDS011;11168;56.976;24.168;2023-07-30T05:45:06;5.40;;;2.92;;
22007;SDS011;11168;56.976;24.168;2023-07-30T05:47:34;4.63;;;2.40;;
22007;SDS011;11168;56.976;24.168;2023-07-30T05:50:01;3.42;;;2.50;;
22007;SDS011;11168;56.976;24.168;2023-07-30T05:52:29;9.43;;;2.80;;
22007;SDS011;11168;56.976;24.168;2023-07-30T05:54:56;6.03;;;2.50;;
22007;SDS011;11168;56.976;24.168;2023-07-30T05:57:23;5.75;;;2.60;;
22007;SDS011;11168;56.976;24.168;2023-07-30T05:59:50;4.07;;;2.33;;
22007;SDS011;11168;56.976;24.168;2023-07-30T06:02:17;7.55;;;2.55;;
22007;SDS011;11168;56.976;24.168;2023-07-30T06:04:44;3.97;;;2.50;;
22007;SDS011;11168;56.976;24.168;2023-07-30T06:07:11;3.35;;;2.20;;
22007;SDS011;11168;56.976;24.168;2023-07-30T06:09:38;3.20;;;2.17;;
22007;SDS011;11168;56.976;24.168;2023-07-30T06:12:05;6.47;;;2.13;;
22007;SDS011;11168;56.976;24.168;2023-07-30T06:14:33;6.45;;;2.60;;
22007;SDS011;11168;56.976;24.168;2023-07-30T06:17:00;4.25;;;2.33;;
22007;SDS011;11168;56.976;24.168;2023-07-30T06:19:27;4.85;;;2.42;;
22007;SDS011;11168;56.976;24.168;2023-07-30T06:21:54;2.97;;;2.08;;
22007;SDS011;11168;56.976;24.168;2023-07-30T06:24:21;3.67;;;2.30;;
22007;SDS011;11168;56.976;24.168;2023-07-30T06:26:48;5.78;;;2.30;;
22007;SDS011;11168;56.976;24.168;2023-07-30T06:29:15;5.00;;;2.28;;
22007;SDS011;11168;56.976;24.168;2023-07-30T06:31:42;5.75;;;2.50;;
22007;SDS011;11168;56.976;24.168;2023-07-30T06:34:09;4.68;;;2.22;;
22007;SDS011;11168;56.976;24.168;2023-07-30T06:36:36;3.92;;;2.17;;
22007;SDS011;11168;56.976;24.168;2023-07-30T06:39:03;5.75;;;2.20;;
22007;SDS011;11168;56.976;24.168;2023-07-30T06:41:30;6.97;;;2.30;;
22007;SDS011;11168;56.976;24.168;2023-07-30T06:43:57;4.15;;;2.40;;
22007;SDS011;11168;56.976;24.168;2023-07-30T06:46:24;3.88;;;2.50;;
22007;SDS011;11168;56.976;24.168;2023-07-30T06:48:51;4.20;;;2.45;;
22007;SDS011;11168;56.976;24.168;2023-07-30T06:51:19;5.05;;;2.72;;
22007;SDS011;11168;56.976;24.168;2023-07-30T06:53:47;3.50;;;2.35;;
22007;SDS011;11168;56.976;24.168;2023-07-30T06:56:14;6.10;;;2.58;;
22007;SDS011;11168;56.976;24.168;2023-07-30T06:58:41;9.25;;;2.47;;
22007;SDS011;11168;56.976;24.168;2023-07-30T07:01:08;4.90;;;2.47;;
22007;SDS011;11168;56.976;24.168;2023-07-30T07:03:35;3.22;;;2.58;;
22007;SDS011;11168;56.976;24.168;2023-07-30T07:06:02;6.18;;;2.58;;
22007;SDS011;11168;56.976;24.168;2023-07-30T07:08:29;4.97;;;2.60;;
22007;SDS011;11168;56.976;24.168;2023-07-30T07:10:57;3.38;;;2.65;;
22007;SDS011;11168;56.976;24.168;2023-07-30T07:13:24;9.52;;;2.50;;
22007;SDS011;11168;56.976;24.168;2023-07-30T07:15:51;6.57;;;2.50;;
22007;SDS011;11168;56.976;24.168;2023-07-30T07:18:19;3.15;;;2.60;;
22007;SDS011;11168;56.976;24.168;2023-07-30T07:20:46;5.60;;;2.70;;
22007;SDS011;11168;56.976;24.168;2023-07-30T07:23:13;8.95;;;2.75;;
22007;SDS011;11168;56.976;24.168;2023-07-30T07:25:40;4.30;;;3.03;;
22007;SDS011;11168;56.976;24.168;2023-07-30T07:28:07;9.38;;;3.03;;
22007;SDS011;11168;56.976;24.168;2023-07-30T07:30:35;5.15;;;2.65;;
22007;SDS011;11168;56.976;24.168;2023-07-30T07:33:03;4.05;;;2.95;;
22007;SDS011;11168;56.976;24.168;2023-07-30T07:35:32;5.55;;;2.95;;
22007;SDS011;11168;56.976;24.168;2023-07-30T07:37:59;7.05;;;3.00;;
22007;SDS011;11168;56.976;24.168;2023-07-30T07:40:26;9.73;;;2.80;;
22007;SDS011;11168;56.976;24.168;2023-07-30T07:42:54;6.65;;;3.08;;
22007;SDS011;11168;56.976;24.168;2023-07-30T07:45:21;6.15;;;2.95;;
22007;SDS011;11168;56.976;24.168;2023-07-30T07:47:48;4.22;;;2.70;;
22007;SDS011;11168;56.976;24.168;2023-07-30T07:50:15;6.07;;;2.75;;
22007;SDS011;11168;56.976;24.168;2023-07-30T07:52:42;4.85;;;3.00;;
22007;SDS011;11168;56.976;24.168;2023-07-30T07:55:10;5.68;;;3.10;;
22007;SDS011;11168;56.976;24.168;2023-07-30T07:57:37;5.88;;;2.95;;
22007;SDS011;11168;56.976;24.168;2023-07-30T08:00:05;4.18;;;3.13;;
22007;SDS011;11168;56.976;24.168;2023-07-30T08:02:33;6.35;;;3.20;;
22007;SDS011;11168;56.976;24.168;2023-07-30T08:05:00;6.53;;;3.50;;
22007;SDS011;11168;56.976;24.168;2023-07-30T08:07:27;4.93;;;3.40;;
22007;SDS011;11168;56.976;24.168;2023-07-30T08:09:54;4.97;;;3.00;;
22007;SDS011;11168;56.976;24.168;2023-07-30T08:12:21;6.35;;;3.58;;
22007;SDS011;11168;56.976;24.168;2023-07-30T08:14:48;5.82;;;3.47;;
22007;SDS011;11168;56.976;24.168;2023-07-30T08:17:15;7.82;;;3.50;;
22007;SDS011;11168;56.976;24.168;2023-07-30T08:19:43;5.03;;;3.20;;
22007;SDS011;11168;56.976;24.168;2023-07-30T08:22:10;5.30;;;3.25;;
22007;SDS011;11168;56.976;24.168;2023-07-30T08:24:39;8.25;;;3.15;;
22007;SDS011;11168;56.976;24.168;2023-07-30T08:27:08;6.20;;;3.50;;
22007;SDS011;11168;56.976;24.168;2023-07-30T08:29:37;9.13;;;3.70;;
22007;SDS011;11168;56.976;24.168;2023-07-30T08:32:05;5.40;;;3.22;;
22007;SDS011;11168;56.976;24.168;2023-07-30T08:34:32;6.85;;;3.55;;
22007;SDS011;11168;56.976;24.168;2023-07-30T08:37:00;7.63;;;3.63;;
22007;SDS011;11168;56.976;24.168;2023-07-30T08:39:27;8.75;;;3.80;;
22007;SDS011;11168;56.976;24.168;2023-07-30T08:41:54;9.38;;;3.33;;
22007;SDS011;11168;56.976;24.168;2023-07-30T08:44:21;8.43;;;3.65;;
22007;SDS011;11168;56.976;24.168;2023-07-30T08:46:48;8.52;;;3.70;;
22007;SDS011;11168;56.976;24.168;2023-07-30T08:49:15;8.10;;;3.85;;
22007;SDS011;11168;56.976;24.168;2023-07-30T08:51:42;10.25;;;3.85;;
22007;SDS011;11168;56.976;24.168;2023-07-30T08:54:14;8.05;;;3.83;;
22007;SDS011;11168;56.976;24.168;2023-07-30T08:56:41;5.22;;;3.58;;
22007;SDS011;11168;56.976;24.168;2023-07-30T08:59:10;5.68;;;3.95;;
22007;SDS011;11168;56.976;24.168;2023-07-30T09:01:38;9.63;;;3.70;;
22007;SDS011;11168;56.976;24.168;2023-07-30T09:04:07;8.18;;;4.22;;
22007;SDS011;11168;56.976;24.168;2023-07-30T09:06:35;8.23;;;4.10;;
22007;SDS011;11168;56.976;24.168;2023-07-30T09:09:02;5.95;;;3.88;;
22007;SDS011;11168;56.976;24.168;2023-07-30T09:11:30;7.85;;;4.07;;
22007;SDS011;11168;56.976;24.168;2023-07-30T09:13:57;6.65;;;4.05;;
22007;SDS011;11168;56.976;24.168;2023-07-30T09:16:27;7.60;;;3.83;;
22007;SDS011;11168;56.976;24.168;2023-07-30T09:18:54;8.27;;;3.72;;
22007;SDS011;11168;56.976;24.168;2023-07-30T09:21:31;6.93;;;4.32;;
22007;SDS011;11168;56.976;24.168;2023-07-30T09:24:03;7.20;;;4.15;;
22007;SDS011;11168;56.976;24.168;2023-07-30T09:26:44;6.30;;;4.10;;
22007;SDS011;11168;56.976;24.168;2023-07-30T09:29:13;6.95;;;3.78;;
22007;SDS011;11168;56.976;24.168;2023-07-30T09:31:47;8.75;;;4.20;;
22007;SDS011;11168;56.976;24.168;2023-07-30T09:34:16;10.57;;;3.90;;
22007;SDS011;11168;56.976;24.168;2023-07-30T09:36:44;8.95;;;3.83;;
22007;SDS011;11168;56.976;24.168;2023-07-30T09:39:19;7.38;;;3.90;;
22007;SDS011;11168;56.976;24.168;2023-07-30T09:41:52;7.10;;;3.70;;
22007;SDS011;11168;56.976;24.168;2023-07-30T09:44:27;6.65;;;3.97;;
22007;SDS011;11168;56.976;24.168;2023-07-30T09:46:54;4.63;;;3.70;;
22007;SDS011;11168;56.976;24.168;2023-07-30T09:49:21;4.65;;;4.00;;
22007;SDS011;11168;56.976;24.168;2023-07-30T09:51:51;7.88;;;3.85;;
22007;SDS011;11168;56.976;24.168;2023-07-30T09:54:21;6.93;;;3.67;;
22007;SDS011;11168;56.976;24.168;2023-07-30T09:56:49;6.75;;;4.10;;
22007;SDS011;11168;56.976;24.168;2023-07-30T09:59:16;7.45;;;3.83;;
22007;SDS011;11168;56.976;24.168;2023-07-30T10:01:45;6.75;;;3.83;;
22007;SDS011;11168;56.976;24.168;2023-07-30T10:04:18;7.35;;;4.20;;
22007;SDS011;11168;56.976;24.168;2023-07-30T10:06:56;6.40;;;4.10;;
22007;SDS011;11168;56.976;24.168;2023-07-30T10:09:37;6.15;;;4.18;;
22007;SDS011;11168;56.976;24.168;2023-07-30T10:12:11;7.87;;;4.83;;
22007;SDS011;11168;56.976;24.168;2023-07-30T10:14:41;7.45;;;4.30;;
22007;SDS011;11168;56.976;24.168;2023-07-30T10:17:10;5.65;;;3.92;;
22007;SDS011;11168;56.976;24.168;2023-07-30T10:19:38;5.45;;;3.97;;
22007;SDS011;11168;56.976;24.168;2023-07-30T10:24:40;11.00;;;5.18;;
22007;SDS011;11168;56.976;24.168;2023-07-30T10:27:08;7.00;;;5.15;;
22007;SDS011;11168;56.976;24.168;2023-07-30T10:29:41;7.47;;;5.25;;
22007;SDS011;11168;56.976;24.168;2023-07-30T10:32:08;8.13;;;5.65;;
22007;SDS011;11168;56.976;24.168;2023-07-30T10:34:45;8.82;;;5.63;;
22007;SDS011;11168;56.976;24.168;2023-07-30T10:37:22;9.27;;;5.60;;
22007;SDS011;11168;56.976;24.168;2023-07-30T10:39:52;14.10;;;6.30;;
22007;SDS011;11168;56.976;24.168;2023-07-30T10:42:19;11.15;;;6.03;;
22007;SDS011;11168;56.976;24.168;2023-07-30T10:44:48;9.50;;;6.65;;
22007;SDS011;11168;56.976;24.168;2023-07-30T10:47:16;8.80;;;7.32;;
22007;SDS011;11168;56.976;24.168;2023-07-30T10:50:02;13.15;;;7.80;;
22007;SDS011;11168;56.976;24.168;2023-07-30T10:52:29;15.15;;;8.30;;
22007;SDS011;11168;56.976;24.168;2023-07-30T10:55:00;12.45;;;7.80;;
22007;SDS011;11168;56.976;24.168;2023-07-30T10:57:31;11.20;;;8.10;;
22007;SDS011;11168;56.976;24.168;2023-07-30T10:59:59;10.02;;;7.88;;
22007;SDS011;11168;56.976;24.168;2023-07-30T11:02:27;10.35;;;7.78;;
22007;SDS011;11168;56.976;24.168;2023-07-30T11:04:56;10.82;;;7.50;;
22007;SDS011;11168;56.976;24.168;2023-07-30T11:07:23;11.77;;;7.28;;
22007;SDS011;11168;56.976;24.168;2023-07-30T11:09:59;11.55;;;7.90;;
22007;SDS011;11168;56.976;24.168;2023-07-30T11:12:30;12.43;;;7.90;;
22007;SDS011;11168;56.976;24.168;2023-07-30T11:15:02;13.73;;;6.75;;
22007;SDS011;11168;56.976;24.168;2023-07-30T11:17:29;10.02;;;6.60;;
22007;SDS011;11168;56.976;24.168;2023-07-30T11:19:57;8.73;;;6.55;;
22007;SDS011;11168;56.976;24.168;2023-07-30T11:22:30;10.38;;;6.70;;
22007;SDS011;11168;56.976;24.168;2023-07-30T11:24:58;9.75;;;6.75;;
22007;SDS011;11168;56.976;24.168;2023-07-30T11:27:27;8.63;;;6.25;;
22007;SDS011;11168;56.976;24.168;2023-07-30T11:29:56;10.93;;;6.80;;
22007;SDS011;11168;56.976;24.168;2023-07-30T11:32:24;8.65;;;5.43;;
22007;SDS011;11168;56.976;24.168;2023-07-30T11:34:56;6.43;;;5.28;;
22007;SDS011;11168;56.976;24.168;2023-07-30T11:37:23;8.32;;;5.68;;
22007;SDS011;11168;56.976;24.168;2023-07-30T11:39:50;7.95;;;5.40;;
22007;SDS011;11168;56.976;24.168;2023-07-30T11:42:19;8.32;;;5.90;;
22007;SDS011;11168;56.976;24.168;2023-07-30T11:44:46;9.20;;;5.85;;
22007;SDS011;11168;56.976;24.168;2023-07-30T11:47:13;6.43;;;5.80;;
22007;SDS011;11168;56.976;24.168;2023-07-30T11:49:58;6.65;;;5.90;;
22007;SDS011;11168;56.976;24.168;2023-07-30T11:52:25;9.52;;;5.70;;
22007;SDS011;11168;56.976;24.168;2023-07-30T11:55:02;7.72;;;5.32;;
22007;SDS011;11168;56.976;24.168;2023-07-30T11:57:33;9.60;;;5.70;;
22007;SDS011;11168;56.976;24.168;2023-07-30T12:00:03;9.02;;;6.40;;
22007;SDS011;11168;56.976;24.168;2023-07-30T12:02:34;9.95;;;7.28;;
22007;SDS011;11168;56.976;24.168;2023-07-30T12:05:02;11.18;;;8.05;;
22007;SDS011;11168;56.976;24.168;2023-07-30T12:07:40;13.13;;;8.38;;
22007;SDS011;11168;56.976;24.168;2023-07-30T12:10:12;10.70;;;7.82;;
22007;SDS011;11168;56.976;24.168;2023-07-30T12:12:43;10.38;;;8.35;;
22007;SDS011;11168;56.976;24.168;2023-07-30T12:17:39;12.73;;;8.80;;
22007;SDS011;11168;56.976;24.168;2023-07-30T12:20:07;10.35;;;9.32;;
22007;SDS011;11168;56.976;24.168;2023-07-30T12:22:37;15.30;;;9.90;;
22007;SDS011;11168;56.976;24.168;2023-07-30T12:25:05;13.07;;;9.85;;
22007;SDS011;11168;56.976;24.168;2023-07-30T12:27:34;10.60;;;9.00;;
22007;SDS011;11168;56.976;24.168;2023-07-30T12:30:01;13.10;;;10.00;;
22007;SDS011;11168;56.976;24.168;2023-07-30T12:32:28;13.30;;;9.70;;
22007;SDS011;11168;56.976;24.168;2023-07-30T12:34:55;13.27;;;10.05;;
22007;SDS011;11168;56.976;24.168;2023-07-30T12:37:22;10.10;;;8.20;;
22007;SDS011;11168;56.976;24.168;2023-07-30T12:39:49;14.90;;;10.40;;
22007;SDS011;11168;56.976;24.168;2023-07-30T12:42:16;11.18;;;8.70;;
22007;SDS011;11168;56.976;24.168;2023-07-30T12:44:43;14.73;;;8.98;;
22007;SDS011;11168;56.976;24.168;2023-07-30T12:47:10;9.07;;;7.70;;
22007;SDS011;11168;56.976;24.168;2023-07-30T12:49:37;8.95;;;7.70;;
22007;SDS011;11168;56.976;24.168;2023-07-30T12:52:04;8.90;;;8.00;;
22007;SDS011;11168;56.976;24.168;2023-07-30T12:54:32;10.73;;;8.50;;
22007;SDS011;11168;56.976;24.168;2023-07-30T12:56:59;11.15;;;8.93;;
22007;SDS011;11168;56.976;24.168;2023-07-30T12:59:26;11.70;;;8.68;;
22007;SDS011;11168;56.976;24.168;2023-07-30T13:01:54;10.40;;;8.52;;
22007;SDS011;11168;56.976;24.168;2023-07-30T13:04:21;10.68;;;9.18;;
22007;SDS011;11168;56.976;24.168;2023-07-30T13:06:48;10.57;;;9.48;;
22007;SDS011;11168;56.976;24.168;2023-07-30T13:09:15;11.98;;;10.48;;
22007;SDS011;11168;56.976;24.168;2023-07-30T13:11:43;13.45;;;10.82;;
22007;SDS011;11168;56.976;24.168;2023-07-30T13:14:11;13.13;;;10.32;;
22007;SDS011;11168;56.976;24.168;2023-07-30T13:16:38;11.77;;;10.10;;
22007;SDS011;11168;56.976;24.168;2023-07-30T13:19:05;10.77;;;8.90;;
22007;SDS011;11168;56.976;24.168;2023-07-30T13:21:32;10.68;;;9.68;;
22007;SDS011;11168;56.976;24.168;2023-07-30T13:24:02;10.93;;;9.35;;
22007;SDS011;11168;56.976;24.168;2023-07-30T13:26:29;10.50;;;9.50;;
22007;SDS011;11168;56.976;24.168;2023-07-30T13:28:56;12.15;;;10.95;;
22007;SDS011;11168;56.976;24.168;2023-07-30T13:31:23;12.77;;;11.50;;
22007;SDS011;11168;56.976;24.168;2023-07-30T13:33:50;12.18;;;11.02;;
22007;SDS011;11168;56.976;24.168;2023-07-30T13:36:18;14.07;;;11.48;;
22007;SDS011;11168;56.976;24.168;2023-07-30T13:38:46;10.52;;;9.43;;
22007;SDS011;11168;56.976;24.168;2023-07-30T13:41:13;11.55;;;10.35;;
22007;SDS011;11168;56.976;24.168;2023-07-30T13:43:40;11.52;;;10.30;;
22007;SDS011;11168;56.976;24.168;2023-07-30T13:46:07;13.65;;;9.85;;
22007;SDS011;11168;56.976;24.168;2023-07-30T13:48:35;10.20;;;9.25;;
22007;SDS011;11168;56.976;24.168;2023-07-30T13:51:02;10.75;;;9.75;;
22007;SDS011;11168;56.976;24.168;2023-07-30T13:53:30;10.55;;;9.55;;
22007;SDS011;11168;56.976;24.168;2023-07-30T13:55:57;11.43;;;10.32;;
22007;SDS011;11168;56.976;24.168;2023-07-30T13:58:23;11.48;;;10.27;;
22007;SDS011;11168;56.976;24.168;2023-07-30T14:00:53;10.82;;;9.75;;
22007;SDS011;11168;56.976;24.168;2023-07-30T14:03:20;10.73;;;9.68;;
22007;SDS011;11168;56.976;24.168;2023-07-30T14:05:48;12.77;;;11.35;;
22007;SDS011;11168;56.976;24.168;2023-07-30T14:08:15;11.95;;;10.55;;
22007;SDS011;11168;56.976;24.168;2023-07-30T14:10:44;11.48;;;10.25;;
22007;SDS011;11168;56.976;24.168;2023-07-30T14:13:11;12.38;;;10.50;;
22007;SDS011;11168;56.976;24.168;2023-07-30T14:15:39;11.75;;;10.43;;
22007;SDS011;11168;56.976;24.168;2023-07-30T14:18:06;12.68;;;11.35;;
22007;SDS011;11168;56.976;24.168;2023-07-30T14:20:33;12.23;;;10.98;;
22007;SDS011;11168;56.976;24.168;2023-07-30T14:23:04;11.57;;;10.33;;
22007;SDS011;11168;56.976;24.168;2023-07-30T14:25:32;12.95;;;11.07;;
22007;SDS011;11168;56.976;24.168;2023-07-30T14:27:59;13.27;;;11.85;;
22007;SDS011;11168;56.976;24.168;2023-07-30T14:30:26;12.40;;;11.10;;
22007;SDS011;11168;56.976;24.168;2023-07-30T14:32:53;12.60;;;11.30;;
22007;SDS011;11168;56.976;24.168;2023-07-30T14:35:20;13.40;;;11.40;;
22007;SDS011;11168;56.976;24.168;2023-07-30T14:37:47;12.52;;;11.25;;